createdAt,value
2022-10-11T00:01:16.491Z,2.90
2022-10-11T00:03:45.110Z,2.83
2022-10-11T00:06:13.410Z,3.03
2022-10-11T00:08:43.091Z,2.93
2022-10-11T00:11:11.922Z,2.53
2022-10-11T00:13:40.146Z,2.50
2022-10-11T00:16:10.493Z,2.40
2022-10-11T00:18:40.014Z,2.33
2022-10-11T00:21:10.162Z,3.03
2022-10-11T00:23:38.723Z,2.60
2022-10-11T00:26:10.229Z,2.73
2022-10-11T00:28:58.743Z,2.43
2022-10-11T00:31:30.911Z,2.23
2022-10-11T00:34:58.576Z,2.60
2022-10-11T00:37:27.026Z,2.90
2022-10-11T00:39:55.354Z,2.70
2022-10-11T00:42:25.741Z,2.93
2022-10-11T00:45:14.305Z,3.20
2022-10-11T00:47:42.838Z,3.57
2022-10-11T00:50:12.496Z,3.10
2022-10-11T00:52:44.362Z,2.90
2022-10-11T00:55:15.869Z,3.37
2022-10-11T00:57:49.878Z,3.10
2022-10-11T01:00:18.353Z,3.10
2022-10-11T01:02:47.330Z,2.83
2022-10-11T01:05:29.575Z,2.80
2022-10-11T01:07:59.933Z,2.53
2022-10-11T01:10:29.196Z,2.30
2022-10-11T01:13:20.377Z,2.77
2022-10-11T01:15:56.556Z,3.00
2022-10-11T01:18:33.201Z,2.50
2022-10-11T01:21:07.537Z,2.90
2022-10-11T01:24:08.360Z,2.90
2022-10-11T01:27:25.441Z,2.90
2022-10-11T01:30:04.762Z,2.70
2022-10-11T01:32:40.928Z,2.47
2022-10-11T01:35:17.464Z,2.97
2022-10-11T01:37:54.494Z,2.83
2022-10-11T01:40:27.955Z,2.80
2022-10-11T01:42:58.462Z,2.83
2022-10-11T01:45:27.558Z,2.87
2022-10-11T01:48:05.791Z,2.90
2022-10-11T01:50:44.336Z,2.50
2022-10-11T01:53:47.449Z,2.60
2022-10-11T01:56:29.336Z,2.23
2022-10-11T01:59:16.934Z,2.50
2022-10-11T02:01:54.758Z,2.60
2022-10-11T02:04:32.063Z,2.20
2022-10-11T02:07:10.881Z,2.30
2022-10-11T02:09:47.231Z,2.93
2022-10-11T02:12:23.955Z,2.70
2022-10-11T02:14:55.627Z,2.33
2022-10-11T02:17:30.109Z,2.47
2022-10-11T02:20:03.976Z,2.60
2022-10-11T02:22:37.226Z,2.20
2022-10-11T02:25:10.138Z,2.67
2022-10-11T02:27:41.614Z,2.50
2022-10-11T02:30:12.377Z,2.47
2022-10-11T02:32:45.188Z,2.47
2022-10-11T02:35:15.227Z,2.40
2022-10-11T02:37:52.628Z,2.60
2022-10-11T02:40:24.953Z,2.37
2022-10-11T02:42:58.774Z,2.30
2022-10-11T02:45:31.453Z,2.20
2022-10-11T02:48:00.344Z,2.10
2022-10-11T02:50:30.277Z,2.60
2022-10-11T02:52:58.597Z,2.47
2022-10-11T02:55:27.074Z,2.70
2022-10-11T02:57:55.441Z,2.10
2022-10-11T03:00:23.858Z,2.43
2022-10-11T03:02:52.394Z,2.43
2022-10-11T03:05:21.053Z,2.17
2022-10-11T03:07:53.582Z,2.10
2022-10-11T03:10:22.263Z,2.10
2022-10-11T03:12:51.114Z,3.00
2022-10-11T03:15:19.987Z,2.13
2022-10-11T03:17:48.301Z,1.90
2022-10-11T03:20:16.813Z,2.23
2022-10-11T03:22:45.143Z,1.93
2022-10-11T03:25:33.603Z,2.07
2022-10-11T03:28:02.122Z,2.20
2022-10-11T03:30:30.574Z,1.90
2022-10-11T03:32:58.979Z,2.27
2022-10-11T03:35:27.456Z,2.13
2022-10-11T03:37:56.348Z,2.10
2022-10-11T03:40:24.855Z,1.90
2022-10-11T03:42:56.502Z,2.20
2022-10-11T03:45:24.865Z,2.07
2022-10-11T03:47:53.266Z,1.90
2022-10-11T03:50:24.715Z,2.30
2022-10-11T03:52:53.463Z,2.40
2022-10-11T03:55:21.870Z,1.93
2022-10-11T03:57:50.604Z,1.97
2022-10-11T04:00:20.374Z,2.30
2022-10-11T04:02:48.768Z,1.90
2022-10-11T04:05:17.462Z,1.87
2022-10-11T04:07:45.825Z,2.07
2022-10-11T04:10:14.234Z,2.17
2022-10-11T04:15:47.911Z,2.33
2022-10-11T04:18:16.499Z,2.07
2022-10-11T04:20:45.118Z,2.00
2022-10-11T04:23:13.503Z,2.17
2022-10-11T04:25:41.835Z,2.40
2022-10-11T04:28:10.348Z,2.10
2022-10-11T04:30:38.797Z,2.50
2022-10-11T04:33:08.982Z,2.00
2022-10-11T04:35:37.531Z,2.03
2022-10-11T04:38:06.017Z,2.00
2022-10-11T04:40:34.823Z,2.47
2022-10-11T04:43:03.305Z,2.00
2022-10-11T04:45:32.118Z,2.10
2022-10-11T04:48:22.038Z,2.00
2022-10-11T04:50:50.787Z,2.17
2022-10-11T04:53:19.233Z,2.40
2022-10-11T04:55:57.704Z,2.50
2022-10-11T04:58:26.266Z,2.20
2022-10-11T05:00:54.948Z,2.23
2022-10-11T05:03:25.214Z,2.23
2022-10-11T05:05:56.699Z,2.20
2022-10-11T05:08:25.567Z,2.20
2022-10-11T05:10:58.162Z,2.10
2022-10-11T05:13:26.985Z,2.30
2022-10-11T05:15:55.452Z,2.10
2022-10-11T05:18:25.761Z,2.33
2022-10-11T05:21:00.853Z,2.33
2022-10-11T05:23:29.599Z,2.30
2022-10-11T05:25:58.145Z,2.10
2022-10-11T05:28:26.725Z,2.57
2022-10-11T05:30:55.586Z,2.23
2022-10-11T05:33:25.945Z,2.57
2022-10-11T05:35:56.895Z,2.70
2022-10-11T05:38:26.892Z,2.20
2022-10-11T05:40:55.432Z,2.00
2022-10-11T05:43:44.486Z,1.87
2022-10-11T05:46:13.627Z,2.00
2022-10-11T05:48:43.526Z,1.90
2022-10-11T05:51:14.825Z,2.30
2022-10-11T05:53:50.439Z,2.30
2022-10-11T05:56:23.673Z,2.23
2022-10-11T05:58:59.904Z,2.03
2022-10-11T06:01:33.352Z,2.07
2022-10-11T06:04:04.794Z,2.60
2022-10-11T06:06:33.353Z,1.83
2022-10-11T06:09:01.693Z,2.40
2022-10-11T06:11:30.309Z,2.13
2022-10-11T06:13:59.176Z,2.10
2022-10-11T06:16:29.598Z,2.30
2022-10-11T06:18:58.796Z,2.20
2022-10-11T06:21:28.540Z,2.10
2022-10-11T06:24:01.796Z,2.30
2022-10-11T06:26:36.859Z,2.10
2022-10-11T06:29:05.434Z,2.73
2022-10-11T06:31:34.095Z,2.50
2022-10-11T06:34:02.580Z,2.20
2022-10-11T06:36:37.983Z,2.33
2022-10-11T06:39:08.995Z,2.77
2022-10-11T06:41:46.354Z,2.63
2022-10-11T06:44:26.328Z,2.53
2022-10-11T06:46:56.340Z,2.47
2022-10-11T06:49:24.853Z,2.97
2022-10-11T06:51:55.385Z,2.53
2022-10-11T06:54:24.410Z,2.43
2022-10-11T06:56:54.291Z,2.60
2022-10-11T06:59:22.766Z,2.70
2022-10-11T07:01:51.103Z,2.57
2022-10-11T07:04:19.431Z,2.67
2022-10-11T07:06:48.042Z,2.40
2022-10-11T07:09:17.862Z,2.43
2022-10-11T07:11:48.458Z,2.50
2022-10-11T07:14:16.947Z,2.20
2022-10-11T07:16:45.360Z,2.30
2022-10-11T07:19:13.873Z,2.20
2022-10-11T07:21:42.315Z,2.60
2022-10-11T07:24:10.831Z,2.27
2022-10-11T07:26:40.863Z,2.23
2022-10-11T07:29:11.243Z,2.40
2022-10-11T07:31:42.063Z,2.00
2022-10-11T07:34:10.847Z,2.40
2022-10-11T07:36:39.238Z,2.53
2022-10-11T07:39:09.350Z,3.13
2022-10-11T07:41:43.157Z,3.63
2022-10-11T07:44:19.705Z,2.90
2022-10-11T07:46:48.192Z,3.50
2022-10-11T07:49:16.628Z,3.73
2022-10-11T07:51:47.798Z,3.23
2022-10-11T07:54:16.591Z,2.90
2022-10-11T07:56:45.579Z,2.60
2022-10-11T07:59:15.721Z,2.43
2022-10-11T08:02:00.090Z,2.50
2022-10-11T08:04:32.388Z,2.40
2022-10-11T08:07:01.773Z,2.53
2022-10-11T08:09:33.690Z,2.97
2022-10-11T08:12:02.387Z,2.70
2022-10-11T08:14:32.336Z,2.87
2022-10-11T08:17:15.915Z,2.50
2022-10-11T08:19:45.689Z,2.23
2022-10-11T08:22:14.490Z,2.33
2022-10-11T08:24:43.292Z,2.40
2022-10-11T08:27:12.141Z,2.40
2022-10-11T08:29:42.307Z,2.67
2022-10-11T08:32:12.235Z,2.50
2022-10-11T08:34:41.265Z,2.57
2022-10-11T08:37:09.985Z,2.43
2022-10-11T08:39:38.893Z,2.20
2022-10-11T08:42:14.088Z,2.60
2022-10-11T08:47:41.063Z,2.40
2022-10-11T08:50:19.757Z,2.20
2022-10-11T08:52:52.634Z,2.23
2022-10-11T08:55:29.458Z,2.80
2022-10-11T08:57:59.846Z,2.30
2022-10-11T09:00:34.154Z,2.10
2022-10-11T09:03:24.468Z,2.37
2022-10-11T09:06:02.499Z,2.50
2022-10-11T09:08:39.101Z,2.47
2022-10-11T09:11:15.867Z,2.13
2022-10-11T09:14:01.175Z,2.37
2022-10-11T09:16:43.731Z,2.50
2022-10-11T09:19:38.835Z,2.23
2022-10-11T09:22:16.014Z,2.38
2022-10-11T09:25:00.995Z,2.30
2022-10-11T09:28:01.213Z,2.47
2022-10-11T09:30:27.143Z,2.60
2022-10-11T09:33:11.194Z,2.58
2022-10-11T09:35:43.562Z,2.35
2022-10-11T09:38:22.923Z,2.30
2022-10-11T09:41:01.633Z,2.50
2022-10-11T09:43:30.279Z,2.35
2022-10-11T09:45:59.134Z,2.30
2022-10-11T09:48:36.575Z,2.60
2022-10-11T09:51:13.764Z,2.80
2022-10-11T09:53:54.977Z,2.60
2022-10-11T09:56:24.836Z,2.80
2022-10-11T09:59:22.925Z,2.38
2022-10-11T10:02:06.992Z,2.80
2022-10-11T10:04:37.016Z,3.00
2022-10-11T10:07:13.671Z,2.97
2022-10-11T10:09:42.228Z,4.00
2022-10-11T10:12:14.296Z,3.65
2022-10-11T10:14:43.060Z,3.17
2022-10-11T10:17:18.287Z,2.40
2022-10-11T10:19:52.537Z,2.38
2022-10-11T10:22:23.182Z,2.58
2022-10-11T10:24:53.063Z,2.75
2022-10-11T10:27:23.503Z,2.65
2022-10-11T10:30:05.885Z,2.60
2022-10-11T10:32:43.749Z,2.60
2022-10-11T10:35:24.404Z,2.95
2022-10-11T10:37:58.671Z,2.85
2022-10-11T10:40:34.083Z,2.75
2022-10-11T10:43:02.531Z,2.90
2022-10-11T10:45:39.516Z,2.90
2022-10-11T10:48:22.779Z,3.03
2022-10-11T10:50:58.603Z,3.20
2022-10-11T10:53:36.342Z,2.80
2022-10-11T10:56:55.510Z,2.88
2022-10-11T11:00:04.995Z,2.75
2022-10-11T11:02:41.669Z,2.97
2022-10-11T11:05:21.530Z,2.70
2022-10-11T11:07:55.995Z,3.00
2022-10-11T11:10:29.690Z,2.53
2022-10-11T11:13:13.649Z,2.72
2022-10-11T11:15:47.300Z,2.92
2022-10-11T11:18:30.254Z,3.55
2022-10-11T11:21:27.979Z,3.40
2022-10-11T11:24:05.852Z,3.15
2022-10-11T11:26:44.475Z,3.38
2022-10-11T11:29:38.336Z,3.38
2022-10-11T11:32:21.551Z,4.22
2022-10-11T11:34:58.394Z,4.13
2022-10-11T11:37:32.077Z,3.28
2022-10-11T11:40:08.850Z,3.53
2022-10-11T11:42:42.915Z,3.47
2022-10-11T11:45:19.579Z,3.50
2022-10-11T11:47:54.068Z,3.60
2022-10-11T11:50:27.321Z,3.53
2022-10-11T11:53:00.843Z,3.33
2022-10-11T11:55:41.278Z,3.80
2022-10-11T11:58:31.379Z,3.33
2022-10-11T12:01:08.694Z,2.97
2022-10-11T12:03:42.253Z,3.40
2022-10-11T12:06:27.298Z,3.13
2022-10-11T12:09:06.441Z,3.00
2022-10-11T12:11:47.402Z,3.23
2022-10-11T12:17:19.427Z,4.10
2022-10-11T12:20:16.234Z,4.03
2022-10-11T12:23:00.306Z,3.43
2022-10-11T12:25:47.192Z,3.60
2022-10-11T12:28:53.315Z,3.70
2022-10-11T12:31:27.420Z,4.20
2022-10-11T12:34:36.284Z,4.00
2022-10-11T12:37:46.802Z,3.70
2022-10-11T12:40:41.888Z,3.70
2022-10-11T12:43:23.716Z,3.37
2022-10-11T12:45:52.461Z,4.00
2022-10-11T12:48:45.481Z,3.77
2022-10-11T12:51:31.450Z,4.27
2022-10-11T12:54:36.859Z,3.93
2022-10-11T12:57:45.929Z,3.30
2022-10-11T13:00:20.830Z,3.50
2022-10-11T13:02:50.431Z,3.60
2022-10-11T13:05:25.266Z,4.10
2022-10-11T13:07:55.097Z,3.50
2022-10-11T13:10:28.829Z,3.80
2022-10-11T13:12:59.689Z,3.43
2022-10-11T13:15:29.594Z,3.80
2022-10-11T13:18:01.004Z,3.40
2022-10-11T13:20:37.524Z,3.97
2022-10-11T13:23:34.974Z,4.20
2022-10-11T13:26:04.037Z,4.03
2022-10-11T13:28:36.481Z,4.07
2022-10-11T13:31:06.921Z,4.20
2022-10-11T13:33:39.218Z,3.90
2022-10-11T13:36:17.633Z,4.10
2022-10-11T13:38:53.534Z,4.37
2022-10-11T13:41:22.738Z,4.00
2022-10-11T13:44:06.068Z,3.60
2022-10-11T13:46:41.698Z,3.67
2022-10-11T13:49:29.244Z,3.87
2022-10-11T13:52:18.502Z,4.00
2022-10-11T13:55:11.470Z,3.90
2022-10-11T13:58:15.025Z,4.33
2022-10-11T14:00:54.883Z,4.07
2022-10-11T14:03:24.673Z,4.53
2022-10-11T14:05:57.632Z,4.10
2022-10-11T14:08:33.069Z,3.70
2022-10-11T14:11:06.305Z,4.33
2022-10-11T14:13:37.638Z,4.30
2022-10-11T14:16:09.505Z,3.80
2022-10-11T14:18:47.641Z,3.60
2022-10-11T14:21:32.863Z,3.80
2022-10-11T14:24:05.976Z,3.50
2022-10-11T14:26:37.160Z,3.90
2022-10-11T14:29:08.877Z,4.17
2022-10-11T14:31:41.788Z,3.53
2022-10-11T14:34:18.029Z,3.70
2022-10-11T14:36:46.787Z,4.03
2022-10-11T14:39:19.809Z,3.63
2022-10-11T14:41:48.597Z,3.80
2022-10-11T14:44:17.272Z,3.70
2022-10-11T14:46:47.099Z,3.73
2022-10-11T14:49:16.887Z,3.90
2022-10-11T14:51:46.399Z,4.03
2022-10-11T14:54:18.878Z,4.20
2022-10-11T14:56:47.712Z,3.87
2022-10-11T14:59:17.943Z,3.90
2022-10-11T15:01:51.586Z,4.40
2022-10-11T15:04:20.388Z,4.20
2022-10-11T15:06:49.725Z,4.10
2022-10-11T15:12:04.416Z,4.17
2022-10-11T15:14:32.746Z,3.97
2022-10-11T15:17:00.990Z,4.20
2022-10-11T15:19:29.469Z,3.80
2022-10-11T15:21:57.851Z,3.63
2022-10-11T15:24:27.931Z,3.80
2022-10-11T15:26:56.234Z,3.80
2022-10-11T15:29:24.540Z,4.20
2022-10-11T15:34:35.544Z,3.70
2022-10-11T15:37:04.082Z,3.77
2022-10-11T15:39:33.903Z,3.50
2022-10-11T15:42:02.211Z,3.47
2022-10-11T15:44:30.393Z,3.77
2022-10-11T15:46:58.667Z,3.47
2022-10-11T15:49:26.970Z,3.53
2022-10-11T15:51:55.306Z,3.40
2022-10-11T15:54:23.646Z,4.00
2022-10-11T15:56:53.310Z,3.70
2022-10-11T15:59:21.589Z,3.37
2022-10-11T16:01:49.931Z,3.10
2022-10-11T16:04:18.348Z,3.10
2022-10-11T16:06:46.993Z,3.17
2022-10-11T16:09:15.273Z,3.33
2022-10-11T16:11:43.603Z,3.03
2022-10-11T16:14:13.251Z,3.10
2022-10-11T16:16:41.535Z,3.10
2022-10-11T16:19:11.034Z,3.30
2022-10-11T16:21:39.317Z,2.77
2022-10-11T16:24:09.504Z,3.10
2022-10-11T16:26:37.753Z,2.90
2022-10-11T16:29:06.098Z,2.90
2022-10-11T16:31:35.798Z,2.57
2022-10-11T16:34:04.869Z,2.40
2022-10-11T16:36:35.991Z,2.70
2022-10-11T16:39:08.779Z,3.00
2022-10-11T16:41:37.359Z,2.80
2022-10-11T16:44:06.160Z,2.73
2022-10-11T16:46:36.075Z,2.90
2022-10-11T16:49:05.518Z,3.20
2022-10-11T16:51:48.553Z,2.80
2022-10-11T16:54:20.706Z,2.70
2022-10-11T16:56:52.828Z,3.20
2022-10-11T16:59:26.876Z,3.03
2022-10-11T17:01:59.791Z,3.10
2022-10-11T17:04:33.881Z,2.90
2022-10-11T17:07:13.590Z,2.70
2022-10-11T17:09:44.156Z,4.27
2022-10-11T17:12:14.186Z,3.30
2022-10-11T17:14:43.419Z,3.30
2022-10-11T17:17:13.946Z,4.57
2022-10-11T17:19:45.336Z,4.70
2022-10-11T17:22:16.436Z,4.93
2022-10-11T17:24:48.362Z,4.60
2022-10-11T17:27:17.609Z,4.47
2022-10-11T17:29:46.466Z,4.13
2022-10-11T17:32:19.889Z,3.90
2022-10-11T17:34:48.811Z,3.77
2022-10-11T17:37:17.240Z,5.30
2022-10-11T17:39:45.627Z,7.20
2022-10-11T17:42:13.990Z,12.20
2022-10-11T17:44:42.530Z,18.70
2022-10-11T17:47:11.260Z,15.47
2022-10-11T17:49:41.316Z,13.03
2022-10-11T17:52:09.886Z,12.10
2022-10-11T17:54:42.977Z,10.07
2022-10-11T17:57:11.408Z,8.27
2022-10-11T17:59:39.840Z,6.67
2022-10-11T18:02:08.403Z,6.77
2022-10-11T18:04:37.663Z,8.07
2022-10-11T18:07:08.881Z,9.80
2022-10-11T18:09:37.338Z,10.30
2022-10-11T18:12:06.140Z,13.03
2022-10-11T18:14:34.649Z,14.10
2022-10-11T18:17:03.661Z,12.40
2022-10-11T18:19:32.500Z,11.37
2022-10-11T18:24:44.893Z,10.20
2022-10-11T18:27:13.649Z,10.43
2022-10-11T18:29:44.595Z,9.57
2022-10-11T18:32:13.909Z,8.20
2022-10-11T18:34:42.596Z,7.23
2022-10-11T18:37:11.149Z,6.40
2022-10-11T18:39:40.255Z,5.90
2022-10-11T18:42:10.403Z,6.07
2022-10-11T18:44:39.361Z,7.00
2022-10-11T18:47:07.888Z,8.57
2022-10-11T18:49:36.443Z,9.80
2022-10-11T18:52:05.466Z,10.13
2022-10-11T18:54:35.085Z,10.77
2022-10-11T18:57:08.274Z,14.53
2022-10-11T18:59:55.514Z,14.23
2022-10-11T19:02:24.901Z,11.77
2022-10-11T19:04:54.793Z,10.57
2022-10-11T19:07:26.044Z,9.20
2022-10-11T19:09:59.717Z,7.47
2022-10-11T19:12:28.942Z,7.43
2022-10-11T19:14:59.399Z,7.10
2022-10-11T19:17:30.025Z,7.07
2022-10-11T19:19:59.593Z,7.37
2022-10-11T19:22:33.580Z,7.03
2022-10-11T19:25:03.564Z,7.00
2022-10-11T19:27:33.525Z,7.93
2022-10-11T19:30:06.914Z,6.90
2022-10-11T19:32:35.894Z,6.70
2022-10-11T19:35:04.363Z,6.73
2022-10-11T19:37:33.284Z,6.97
2022-10-11T19:40:03.960Z,6.47
2022-10-11T19:42:32.786Z,6.20
2022-10-11T19:45:01.474Z,6.17
2022-10-11T19:47:31.654Z,6.10
2022-10-11T19:50:00.187Z,7.70
2022-10-11T19:52:28.650Z,6.47
2022-10-11T19:54:57.887Z,6.30
2022-10-11T19:57:26.402Z,5.60
2022-10-11T19:59:54.723Z,5.53
2022-10-11T20:02:23.567Z,5.23
2022-10-11T20:04:54.040Z,5.17
2022-10-11T20:07:23.242Z,5.70
2022-10-11T20:09:52.571Z,4.90
2022-10-11T20:12:21.141Z,5.87
2022-10-11T20:14:49.750Z,6.10
2022-10-11T20:17:18.146Z,6.07
2022-10-11T20:19:46.536Z,4.40
2022-10-11T20:22:16.706Z,4.60
2022-10-11T20:24:45.189Z,6.20
2022-10-11T20:27:13.657Z,5.80
2022-10-11T20:29:42.146Z,5.20
2022-10-11T20:32:11.379Z,4.97
2022-10-11T20:34:39.993Z,4.30
2022-10-11T20:37:25.685Z,4.50
2022-10-11T20:39:54.065Z,4.43
2022-10-11T20:42:25.292Z,4.60
2022-10-11T20:44:56.204Z,4.80
2022-10-11T20:47:24.591Z,5.47
2022-10-11T20:49:53.312Z,5.00
2022-10-11T20:52:22.195Z,4.80
2022-10-11T20:54:52.084Z,5.03
2022-10-11T20:57:20.705Z,5.07
2022-10-11T20:59:49.394Z,4.83
2022-10-11T21:02:19.100Z,5.90
2022-10-11T21:04:47.612Z,5.47
2022-10-11T21:07:15.955Z,5.30
2022-10-11T21:09:44.407Z,4.97
2022-10-11T21:12:14.211Z,5.10
2022-10-11T21:14:57.497Z,5.80
2022-10-11T21:17:26.936Z,5.83
2022-10-11T21:19:55.369Z,6.03
2022-10-11T21:22:23.891Z,5.47
2022-10-11T21:24:52.277Z,5.50
2022-10-11T21:27:22.564Z,5.60
2022-10-11T21:29:51.119Z,6.33
2022-10-11T21:32:34.918Z,6.60
2022-10-11T21:35:05.452Z,6.03
2022-10-11T21:37:33.979Z,5.40
2022-10-11T21:40:02.357Z,5.90
2022-10-11T21:42:32.000Z,6.33
2022-10-11T21:45:00.350Z,5.60
2022-10-11T21:47:28.675Z,4.97
2022-10-11T21:49:57.467Z,5.63
2022-10-11T21:52:26.057Z,5.40
2022-10-11T21:54:55.080Z,5.30
2022-10-11T22:03:42.358Z,4.93
2022-10-11T22:57:41.682Z,5.10
2022-10-11T23:00:13.231Z,5.63
2022-10-11T23:02:46.122Z,4.67
2022-10-11T23:05:15.118Z,5.10
2022-10-11T23:20:25.454Z,5.63
2022-10-11T23:25:51.029Z,5.30
2022-10-11T23:41:00.367Z,5.00
2022-10-11T23:43:29.119Z,5.40
